sensor_id;sensor_type;location;lat;lon;timestamp;P1;durP1;ratioP1;P2;durP2;ratioP2
81627;SDS011;71036;51.102;6.514;2023-11-22T00:00:19;32.73;;;12.90;;
81627;SDS011;71036;51.102;6.514;2023-11-22T00:02:46;25.80;;;12.03;;
81627;SDS011;71036;51.102;6.514;2023-11-22T00:05:12;27.87;;;13.60;;
81627;SDS011;71036;51.102;6.514;2023-11-22T00:07:37;25.67;;;12.37;;
81627;SDS011;71036;51.102;6.514;2023-11-22T00:10:02;31.93;;;13.00;;
81627;SDS011;71036;51.102;6.514;2023-11-22T00:12:29;34.43;;;12.60;;
81627;SDS011;71036;51.102;6.514;2023-11-22T00:15:01;28.50;;;11.70;;
81627;SDS011;71036;51.102;6.514;2023-11-22T00:17:26;22.27;;;10.98;;
81627;SDS011;71036;51.102;6.514;2023-11-22T00:19:51;26.27;;;12.00;;
81627;SDS011;71036;51.102;6.514;2023-11-22T00:22:16;25.60;;;12.15;;
81627;SDS011;71036;51.102;6.514;2023-11-22T00:24:41;25.58;;;12.32;;
81627;SDS011;71036;51.102;6.514;2023-11-22T00:27:07;24.03;;;11.50;;
81627;SDS011;71036;51.102;6.514;2023-11-22T00:29:32;32.63;;;12.73;;
81627;SDS011;71036;51.102;6.514;2023-11-22T00:31:57;22.07;;;11.10;;
81627;SDS011;71036;51.102;6.514;2023-11-22T00:34:23;24.27;;;12.30;;
81627;SDS011;71036;51.102;6.514;2023-11-22T00:36:48;25.07;;;12.40;;
81627;SDS011;71036;51.102;6.514;2023-11-22T00:39:14;34.27;;;12.60;;
81627;SDS011;71036;51.102;6.514;2023-11-22T00:41:39;25.10;;;12.07;;
81627;SDS011;71036;51.102;6.514;2023-11-22T00:44:04;31.43;;;13.20;;
81627;SDS011;71036;51.102;6.514;2023-11-22T00:46:30;21.97;;;11.03;;
81627;SDS011;71036;51.102;6.514;2023-11-22T00:48:56;23.00;;;11.00;;
81627;SDS011;71036;51.102;6.514;2023-11-22T00:51:21;32.03;;;12.50;;
81627;SDS011;71036;51.102;6.514;2023-11-22T00:53:48;34.33;;;14.87;;
81627;SDS011;71036;51.102;6.514;2023-11-22T00:56:14;26.53;;;13.60;;
81627;SDS011;71036;51.102;6.514;2023-11-22T00:58:39;27.57;;;13.00;;
81627;SDS011;71036;51.102;6.514;2023-11-22T01:01:04;30.77;;;13.23;;
81627;SDS011;71036;51.102;6.514;2023-11-22T01:03:30;25.43;;;11.93;;
81627;SDS011;71036;51.102;6.514;2023-11-22T01:05:55;31.83;;;13.40;;
81627;SDS011;71036;51.102;6.514;2023-11-22T01:08:20;29.27;;;13.23;;
81627;SDS011;71036;51.102;6.514;2023-11-22T01:10:45;24.67;;;12.10;;
81627;SDS011;71036;51.102;6.514;2023-11-22T01:13:11;30.35;;;12.48;;
81627;SDS011;71036;51.102;6.514;2023-11-22T01:15:36;30.90;;;12.93;;
81627;SDS011;71036;51.102;6.514;2023-11-22T01:18:01;28.20;;;13.10;;
81627;SDS011;71036;51.102;6.514;2023-11-22T01:20:26;28.40;;;13.20;;
81627;SDS011;71036;51.102;6.514;2023-11-22T01:22:51;29.38;;;12.05;;
81627;SDS011;71036;51.102;6.514;2023-11-22T01:25:17;27.63;;;12.43;;
81627;SDS011;71036;51.102;6.514;2023-11-22T01:27:42;27.80;;;12.30;;
81627;SDS011;71036;51.102;6.514;2023-11-22T01:30:07;29.00;;;12.27;;
81627;SDS011;71036;51.102;6.514;2023-11-22T01:32:33;29.30;;;13.93;;
81627;SDS011;71036;51.102;6.514;2023-11-22T01:34:58;25.83;;;13.57;;
81627;SDS011;71036;51.102;6.514;2023-11-22T01:37:24;32.03;;;12.63;;
81627;SDS011;71036;51.102;6.514;2023-11-22T01:39:49;27.97;;;13.83;;
81627;SDS011;71036;51.102;6.514;2023-11-22T01:42:14;26.17;;;12.13;;
81627;SDS011;71036;51.102;6.514;2023-11-22T01:44:39;28.30;;;13.57;;
81627;SDS011;71036;51.102;6.514;2023-11-22T01:47:05;27.93;;;12.73;;
81627;SDS011;71036;51.102;6.514;2023-11-22T01:49:31;27.00;;;12.73;;
81627;SDS011;71036;51.102;6.514;2023-11-22T01:51:56;32.70;;;14.43;;
81627;SDS011;71036;51.102;6.514;2023-11-22T01:54:21;34.80;;;13.43;;
81627;SDS011;71036;51.102;6.514;2023-11-22T01:56:48;26.37;;;11.70;;
81627;SDS011;71036;51.102;6.514;2023-11-22T01:59:13;31.40;;;13.37;;
81627;SDS011;71036;51.102;6.514;2023-11-22T02:01:38;30.23;;;11.57;;
81627;SDS011;71036;51.102;6.514;2023-11-22T02:04:03;30.70;;;13.13;;
81627;SDS011;71036;51.102;6.514;2023-11-22T02:06:29;28.93;;;12.50;;
81627;SDS011;71036;51.102;6.514;2023-11-22T02:08:56;29.50;;;13.13;;
81627;SDS011;71036;51.102;6.514;2023-11-22T02:11:21;32.75;;;12.18;;
81627;SDS011;71036;51.102;6.514;2023-11-22T02:13:49;32.97;;;14.00;;
81627;SDS011;71036;51.102;6.514;2023-11-22T02:16:15;25.77;;;11.00;;
81627;SDS011;71036;51.102;6.514;2023-11-22T02:18:40;37.93;;;14.10;;
81627;SDS011;71036;51.102;6.514;2023-11-22T02:21:07;27.40;;;12.53;;
81627;SDS011;71036;51.102;6.514;2023-11-22T02:23:32;21.50;;;10.10;;
81627;SDS011;71036;51.102;6.514;2023-11-22T02:25:57;32.90;;;12.97;;
81627;SDS011;71036;51.102;6.514;2023-11-22T02:28:23;33.97;;;13.20;;
81627;SDS011;71036;51.102;6.514;2023-11-22T02:30:48;28.00;;;12.63;;
81627;SDS011;71036;51.102;6.514;2023-11-22T02:33:13;32.90;;;13.30;;
81627;SDS011;71036;51.102;6.514;2023-11-22T02:35:39;29.63;;;12.95;;
81627;SDS011;71036;51.102;6.514;2023-11-22T02:38:05;30.77;;;12.67;;
81627;SDS011;71036;51.102;6.514;2023-11-22T02:40:31;36.13;;;13.65;;
81627;SDS011;71036;51.102;6.514;2023-11-22T02:42:56;31.20;;;13.83;;
81627;SDS011;71036;51.102;6.514;2023-11-22T02:45:24;29.55;;;13.43;;
81627;SDS011;71036;51.102;6.514;2023-11-22T02:47:49;31.60;;;12.63;;
81627;SDS011;71036;51.102;6.514;2023-11-22T02:50:15;29.00;;;12.93;;
81627;SDS011;71036;51.102;6.514;2023-11-22T02:52:41;28.73;;;13.80;;
81627;SDS011;71036;51.102;6.514;2023-11-22T02:55:07;31.67;;;13.47;;
81627;SDS011;71036;51.102;6.514;2023-11-22T02:57:32;31.70;;;12.57;;
81627;SDS011;71036;51.102;6.514;2023-11-22T02:59:57;29.70;;;13.10;;
81627;SDS011;71036;51.102;6.514;2023-11-22T03:02:23;26.37;;;11.40;;
81627;SDS011;71036;51.102;6.514;2023-11-22T03:04:49;31.93;;;13.10;;
81627;SDS011;71036;51.102;6.514;2023-11-22T03:07:14;28.00;;;12.43;;
81627;SDS011;71036;51.102;6.514;2023-11-22T03:09:39;25.23;;;11.57;;
81627;SDS011;71036;51.102;6.514;2023-11-22T03:12:06;33.50;;;12.40;;
81627;SDS011;71036;51.102;6.514;2023-11-22T03:14:31;24.97;;;11.60;;
81627;SDS011;71036;51.102;6.514;2023-11-22T03:16:56;49.70;;;15.10;;
81627;SDS011;71036;51.102;6.514;2023-11-22T03:19:22;35.27;;;13.97;;
81627;SDS011;71036;51.102;6.514;2023-11-22T03:21:47;34.45;;;13.45;;
81627;SDS011;71036;51.102;6.514;2023-11-22T03:24:12;34.60;;;14.13;;
81627;SDS011;71036;51.102;6.514;2023-11-22T03:26:40;35.37;;;14.80;;
81627;SDS011;71036;51.102;6.514;2023-11-22T03:29:05;40.67;;;14.20;;
81627;SDS011;71036;51.102;6.514;2023-11-22T03:31:30;30.37;;;12.83;;
81627;SDS011;71036;51.102;6.514;2023-11-22T03:33:56;32.65;;;12.43;;
81627;SDS011;71036;51.102;6.514;2023-11-22T03:36:21;42.17;;;15.27;;
81627;SDS011;71036;51.102;6.514;2023-11-22T03:38:50;39.20;;;15.90;;
81627;SDS011;71036;51.102;6.514;2023-11-22T03:41:15;48.67;;;15.50;;
81627;SDS011;71036;51.102;6.514;2023-11-22T03:43:42;52.10;;;22.70;;
81627;SDS011;71036;51.102;6.514;2023-11-22T03:46:07;48.83;;;18.90;;
81627;SDS011;71036;51.102;6.514;2023-11-22T03:48:32;43.80;;;15.70;;
81627;SDS011;71036;51.102;6.514;2023-11-22T03:50:57;54.00;;;17.27;;
81627;SDS011;71036;51.102;6.514;2023-11-22T03:53:22;45.03;;;16.70;;
81627;SDS011;71036;51.102;6.514;2023-11-22T03:55:48;53.50;;;16.80;;
81627;SDS011;71036;51.102;6.514;2023-11-22T03:58:14;43.77;;;15.83;;
81627;SDS011;71036;51.102;6.514;2023-11-22T04:00:39;41.93;;;14.37;;
81627;SDS011;71036;51.102;6.514;2023-11-22T04:03:04;42.87;;;15.40;;
81627;SDS011;71036;51.102;6.514;2023-11-22T04:05:29;46.00;;;16.33;;
81627;SDS011;71036;51.102;6.514;2023-11-22T04:07:55;47.00;;;17.63;;
81627;SDS011;71036;51.102;6.514;2023-11-22T04:10:21;39.30;;;14.87;;
81627;SDS011;71036;51.102;6.514;2023-11-22T04:12:46;48.13;;;16.57;;
81627;SDS011;71036;51.102;6.514;2023-11-22T04:15:12;55.30;;;17.43;;
81627;SDS011;71036;51.102;6.514;2023-11-22T04:17:38;54.13;;;16.53;;
81627;SDS011;71036;51.102;6.514;2023-11-22T04:20:04;38.27;;;15.10;;
81627;SDS011;71036;51.102;6.514;2023-11-22T04:22:34;35.83;;;14.23;;
81627;SDS011;71036;51.102;6.514;2023-11-22T04:24:59;34.30;;;14.60;;
81627;SDS011;71036;51.102;6.514;2023-11-22T04:27:24;45.55;;;15.68;;
81627;SDS011;71036;51.102;6.514;2023-11-22T04:29:49;37.97;;;16.02;;
81627;SDS011;71036;51.102;6.514;2023-11-22T04:32:14;39.40;;;14.75;;
81627;SDS011;71036;51.102;6.514;2023-11-22T04:34:40;43.70;;;15.67;;
81627;SDS011;71036;51.102;6.514;2023-11-22T04:37:05;32.38;;;12.63;;
81627;SDS011;71036;51.102;6.514;2023-11-22T04:39:30;43.42;;;15.63;;
81627;SDS011;71036;51.102;6.514;2023-11-22T04:41:55;41.13;;;14.13;;
81627;SDS011;71036;51.102;6.514;2023-11-22T04:44:20;38.63;;;14.55;;
81627;SDS011;71036;51.102;6.514;2023-11-22T04:46:45;37.92;;;14.43;;
81627;SDS011;71036;51.102;6.514;2023-11-22T04:49:11;44.40;;;14.80;;
81627;SDS011;71036;51.102;6.514;2023-11-22T04:51:36;46.90;;;16.97;;
81627;SDS011;71036;51.102;6.514;2023-11-22T04:54:02;45.83;;;16.53;;
81627;SDS011;71036;51.102;6.514;2023-11-22T04:56:27;50.87;;;17.93;;
81627;SDS011;71036;51.102;6.514;2023-11-22T04:58:52;49.13;;;16.55;;
81627;SDS011;71036;51.102;6.514;2023-11-22T05:01:18;59.30;;;17.02;;
81627;SDS011;71036;51.102;6.514;2023-11-22T05:03:43;43.70;;;17.00;;
81627;SDS011;71036;51.102;6.514;2023-11-22T05:06:08;53.92;;;17.10;;
81627;SDS011;71036;51.102;6.514;2023-11-22T05:08:33;51.73;;;17.30;;
81627;SDS011;71036;51.102;6.514;2023-11-22T05:10:59;51.27;;;18.77;;
81627;SDS011;71036;51.102;6.514;2023-11-22T05:13:24;49.13;;;17.17;;
81627;SDS011;71036;51.102;6.514;2023-11-22T05:15:49;57.92;;;18.35;;
81627;SDS011;71036;51.102;6.514;2023-11-22T05:18:15;71.10;;;18.60;;
81627;SDS011;71036;51.102;6.514;2023-11-22T05:20:40;61.73;;;17.37;;
81627;SDS011;71036;51.102;6.514;2023-11-22T05:23:05;67.30;;;19.43;;
81627;SDS011;71036;51.102;6.514;2023-11-22T05:25:31;68.03;;;17.53;;
81627;SDS011;71036;51.102;6.514;2023-11-22T05:27:56;56.80;;;18.00;;
81627;SDS011;71036;51.102;6.514;2023-11-22T05:30:21;53.77;;;17.50;;
81627;SDS011;71036;51.102;6.514;2023-11-22T05:32:47;58.40;;;19.87;;
81627;SDS011;71036;51.102;6.514;2023-11-22T05:35:12;47.97;;;17.40;;
81627;SDS011;71036;51.102;6.514;2023-11-22T05:37:37;71.07;;;19.00;;
81627;SDS011;71036;51.102;6.514;2023-11-22T05:40:03;55.57;;;19.53;;
81627;SDS011;71036;51.102;6.514;2023-11-22T05:42:29;56.60;;;17.97;;
81627;SDS011;71036;51.102;6.514;2023-11-22T05:44:54;42.83;;;16.07;;
81627;SDS011;71036;51.102;6.514;2023-11-22T05:47:19;49.78;;;18.52;;
81627;SDS011;71036;51.102;6.514;2023-11-22T05:49:45;48.40;;;16.57;;
81627;SDS011;71036;51.102;6.514;2023-11-22T05:52:10;53.07;;;18.43;;
81627;SDS011;71036;51.102;6.514;2023-11-22T05:54:35;49.35;;;16.83;;
81627;SDS011;71036;51.102;6.514;2023-11-22T05:57:01;52.47;;;18.97;;
81627;SDS011;71036;51.102;6.514;2023-11-22T05:59:27;57.23;;;17.77;;
81627;SDS011;71036;51.102;6.514;2023-11-22T06:01:52;51.30;;;18.03;;
81627;SDS011;71036;51.102;6.514;2023-11-22T06:04:17;48.20;;;15.90;;
81627;SDS011;71036;51.102;6.514;2023-11-22T06:06:42;43.73;;;15.87;;
81627;SDS011;71036;51.102;6.514;2023-11-22T06:09:07;46.65;;;16.08;;
81627;SDS011;71036;51.102;6.514;2023-11-22T06:11:32;52.73;;;18.20;;
81627;SDS011;71036;51.102;6.514;2023-11-22T06:13:57;46.60;;;16.23;;
81627;SDS011;71036;51.102;6.514;2023-11-22T06:16:23;42.77;;;15.77;;
81627;SDS011;71036;51.102;6.514;2023-11-22T06:18:48;41.17;;;15.17;;
81627;SDS011;71036;51.102;6.514;2023-11-22T06:21:13;45.53;;;16.80;;
81627;SDS011;71036;51.102;6.514;2023-11-22T06:23:38;52.03;;;18.70;;
81627;SDS011;71036;51.102;6.514;2023-11-22T06:26:03;39.87;;;15.27;;
81627;SDS011;71036;51.102;6.514;2023-11-22T06:28:29;41.97;;;16.07;;
81627;SDS011;71036;51.102;6.514;2023-11-22T06:30:54;47.93;;;16.40;;
81627;SDS011;71036;51.102;6.514;2023-11-22T06:33:19;48.20;;;16.50;;
81627;SDS011;71036;51.102;6.514;2023-11-22T06:35:44;42.57;;;14.60;;
81627;SDS011;71036;51.102;6.514;2023-11-22T06:38:10;47.47;;;15.37;;
81627;SDS011;71036;51.102;6.514;2023-11-22T06:40:35;51.87;;;16.93;;
81627;SDS011;71036;51.102;6.514;2023-11-22T06:43:00;52.43;;;16.50;;
81627;SDS011;71036;51.102;6.514;2023-11-22T06:45:25;43.67;;;15.37;;
81627;SDS011;71036;51.102;6.514;2023-11-22T06:47:51;46.80;;;15.97;;
81627;SDS011;71036;51.102;6.514;2023-11-22T06:50:16;49.40;;;16.10;;
81627;SDS011;71036;51.102;6.514;2023-11-22T06:52:42;44.00;;;15.33;;
81627;SDS011;71036;51.102;6.514;2023-11-22T06:55:08;43.13;;;16.37;;
81627;SDS011;71036;51.102;6.514;2023-11-22T06:57:34;49.70;;;17.10;;
81627;SDS011;71036;51.102;6.514;2023-11-22T06:59:59;50.20;;;16.03;;
81627;SDS011;71036;51.102;6.514;2023-11-22T07:02:26;43.73;;;14.77;;
81627;SDS011;71036;51.102;6.514;2023-11-22T07:04:51;53.10;;;14.40;;
81627;SDS011;71036;51.102;6.514;2023-11-22T07:07:16;51.27;;;17.43;;
81627;SDS011;71036;51.102;6.514;2023-11-22T07:09:42;55.33;;;17.30;;
81627;SDS011;71036;51.102;6.514;2023-11-22T07:12:07;42.70;;;14.93;;
81627;SDS011;71036;51.102;6.514;2023-11-22T07:14:32;42.10;;;14.50;;
81627;SDS011;71036;51.102;6.514;2023-11-22T07:16:58;49.33;;;14.97;;
81627;SDS011;71036;51.102;6.514;2023-11-22T07:19:23;40.37;;;14.87;;
81627;SDS011;71036;51.102;6.514;2023-11-22T07:21:48;56.08;;;16.65;;
81627;SDS011;71036;51.102;6.514;2023-11-22T07:24:13;63.07;;;18.40;;
81627;SDS011;71036;51.102;6.514;2023-11-22T07:26:40;48.17;;;14.53;;
81627;SDS011;71036;51.102;6.514;2023-11-22T07:29:07;50.37;;;17.10;;
81627;SDS011;71036;51.102;6.514;2023-11-22T07:31:32;47.60;;;16.93;;
81627;SDS011;71036;51.102;6.514;2023-11-22T07:33:57;64.97;;;17.60;;
81627;SDS011;71036;51.102;6.514;2023-11-22T07:36:22;53.63;;;17.07;;
81627;SDS011;71036;51.102;6.514;2023-11-22T07:38:48;59.03;;;17.93;;
81627;SDS011;71036;51.102;6.514;2023-11-22T07:41:13;36.60;;;15.27;;
81627;SDS011;71036;51.102;6.514;2023-11-22T07:43:38;50.40;;;18.87;;
81627;SDS011;71036;51.102;6.514;2023-11-22T07:46:07;56.60;;;17.17;;
81627;SDS011;71036;51.102;6.514;2023-11-22T07:48:37;54.43;;;17.77;;
81627;SDS011;71036;51.102;6.514;2023-11-22T07:51:03;50.30;;;14.90;;
81627;SDS011;71036;51.102;6.514;2023-11-22T07:53:28;57.47;;;18.23;;
81627;SDS011;71036;51.102;6.514;2023-11-22T07:55:54;35.63;;;12.70;;
81627;SDS011;71036;51.102;6.514;2023-11-22T07:58:19;42.53;;;15.60;;
81627;SDS011;71036;51.102;6.514;2023-11-22T08:00:45;37.83;;;14.00;;
81627;SDS011;71036;51.102;6.514;2023-11-22T08:03:10;39.40;;;14.37;;
81627;SDS011;71036;51.102;6.514;2023-11-22T08:05:35;40.20;;;15.30;;
81627;SDS011;71036;51.102;6.514;2023-11-22T08:08:02;47.17;;;17.70;;
81627;SDS011;71036;51.102;6.514;2023-11-22T08:10:31;48.47;;;18.10;;
81627;SDS011;71036;51.102;6.514;2023-11-22T08:12:56;43.13;;;16.77;;
81627;SDS011;71036;51.102;6.514;2023-11-22T08:15:22;28.73;;;12.60;;
81627;SDS011;71036;51.102;6.514;2023-11-22T08:17:47;34.37;;;14.53;;
81627;SDS011;71036;51.102;6.514;2023-11-22T08:20:12;42.25;;;16.10;;
81627;SDS011;71036;51.102;6.514;2023-11-22T08:22:41;38.33;;;13.80;;
81627;SDS011;71036;51.102;6.514;2023-11-22T08:25:07;33.57;;;11.70;;
81627;SDS011;71036;51.102;6.514;2023-11-22T08:27:33;40.43;;;13.03;;
81627;SDS011;71036;51.102;6.514;2023-11-22T08:29:58;39.70;;;12.77;;
81627;SDS011;71036;51.102;6.514;2023-11-22T08:32:23;21.93;;;11.60;;
81627;SDS011;71036;51.102;6.514;2023-11-22T08:34:52;27.07;;;11.20;;
81627;SDS011;71036;51.102;6.514;2023-11-22T08:37:17;30.80;;;11.35;;
81627;SDS011;71036;51.102;6.514;2023-11-22T08:39:43;29.80;;;11.10;;
81627;SDS011;71036;51.102;6.514;2023-11-22T08:42:08;21.03;;;8.90;;
81627;SDS011;71036;51.102;6.514;2023-11-22T08:44:36;18.80;;;9.43;;
81627;SDS011;71036;51.102;6.514;2023-11-22T08:47:02;15.63;;;7.97;;
81627;SDS011;71036;51.102;6.514;2023-11-22T08:49:28;14.23;;;7.43;;
81627;SDS011;71036;51.102;6.514;2023-11-22T08:51:53;14.50;;;7.40;;
81627;SDS011;71036;51.102;6.514;2023-11-22T08:54:18;18.83;;;8.73;;
81627;SDS011;71036;51.102;6.514;2023-11-22T08:56:44;16.65;;;7.88;;
81627;SDS011;71036;51.102;6.514;2023-11-22T08:59:11;17.30;;;8.27;;
81627;SDS011;71036;51.102;6.514;2023-11-22T09:01:37;12.03;;;6.70;;
81627;SDS011;71036;51.102;6.514;2023-11-22T09:04:02;12.27;;;6.87;;
81627;SDS011;71036;51.102;6.514;2023-11-22T09:06:27;15.17;;;8.63;;
81627;SDS011;71036;51.102;6.514;2023-11-22T09:08:54;13.60;;;7.03;;
81627;SDS011;71036;51.102;6.514;2023-11-22T09:11:19;13.07;;;7.50;;
81627;SDS011;71036;51.102;6.514;2023-11-22T09:13:47;15.43;;;7.50;;
81627;SDS011;71036;51.102;6.514;2023-11-22T09:16:12;11.70;;;7.20;;
81627;SDS011;71036;51.102;6.514;2023-11-22T09:18:38;19.33;;;7.47;;
81627;SDS011;71036;51.102;6.514;2023-11-22T09:21:03;9.03;;;6.23;;
81627;SDS011;71036;51.102;6.514;2023-11-22T09:23:29;9.10;;;5.97;;
81627;SDS011;71036;51.102;6.514;2023-11-22T09:25:54;11.83;;;7.13;;
81627;SDS011;71036;51.102;6.514;2023-11-22T09:28:20;11.95;;;6.35;;
81627;SDS011;71036;51.102;6.514;2023-11-22T09:30:46;14.50;;;7.83;;
81627;SDS011;71036;51.102;6.514;2023-11-22T09:33:14;13.77;;;6.60;;
81627;SDS011;71036;51.102;6.514;2023-11-22T09:35:44;9.57;;;6.93;;
81627;SDS011;71036;51.102;6.514;2023-11-22T09:38:10;10.80;;;6.93;;
81627;SDS011;71036;51.102;6.514;2023-11-22T09:43:04;11.03;;;7.17;;
81627;SDS011;71036;51.102;6.514;2023-11-22T09:45:29;13.53;;;7.00;;
81627;SDS011;71036;51.102;6.514;2023-11-22T09:47:55;11.50;;;6.97;;
81627;SDS011;71036;51.102;6.514;2023-11-22T09:50:23;13.30;;;6.93;;
81627;SDS011;71036;51.102;6.514;2023-11-22T09:52:51;16.93;;;6.90;;
81627;SDS011;71036;51.102;6.514;2023-11-22T09:55:19;9.57;;;6.20;;
81627;SDS011;71036;51.102;6.514;2023-11-22T09:57:44;16.97;;;7.67;;
81627;SDS011;71036;51.102;6.514;2023-11-22T10:00:10;9.53;;;6.27;;
81627;SDS011;71036;51.102;6.514;2023-11-22T10:02:39;10.87;;;6.70;;
81627;SDS011;71036;51.102;6.514;2023-11-22T10:05:05;13.13;;;6.33;;
81627;SDS011;71036;51.102;6.514;2023-11-22T10:07:31;11.73;;;6.00;;
81627;SDS011;71036;51.102;6.514;2023-11-22T10:09:57;11.37;;;6.50;;
81627;SDS011;71036;51.102;6.514;2023-11-22T10:12:27;12.87;;;6.30;;
81627;SDS011;71036;51.102;6.514;2023-11-22T10:14:54;11.90;;;5.97;;
81627;SDS011;71036;51.102;6.514;2023-11-22T10:17:19;10.13;;;5.70;;
81627;SDS011;71036;51.102;6.514;2023-11-22T10:19:45;10.60;;;6.30;;
81627;SDS011;71036;51.102;6.514;2023-11-22T10:22:10;10.45;;;5.72;;
81627;SDS011;71036;51.102;6.514;2023-11-22T10:24:40;7.27;;;4.37;;
81627;SDS011;71036;51.102;6.514;2023-11-22T10:27:08;10.07;;;5.23;;
81627;SDS011;71036;51.102;6.514;2023-11-22T10:29:35;8.90;;;6.20;;
81627;SDS011;71036;51.102;6.514;2023-11-22T10:32:01;11.07;;;5.37;;
81627;SDS011;71036;51.102;6.514;2023-11-22T10:34:28;8.70;;;5.17;;
81627;SDS011;71036;51.102;6.514;2023-11-22T10:36:55;9.57;;;6.40;;
81627;SDS011;71036;51.102;6.514;2023-11-22T10:39:20;12.53;;;6.20;;
81627;SDS011;71036;51.102;6.514;2023-11-22T10:41:46;13.87;;;6.00;;
81627;SDS011;71036;51.102;6.514;2023-11-22T10:44:12;9.80;;;6.00;;
81627;SDS011;71036;51.102;6.514;2023-11-22T10:46:37;15.17;;;7.63;;
81627;SDS011;71036;51.102;6.514;2023-11-22T10:49:04;12.27;;;6.33;;
81627;SDS011;71036;51.102;6.514;2023-11-22T10:51:30;11.90;;;5.67;;
81627;SDS011;71036;51.102;6.514;2023-11-22T10:53:55;8.33;;;5.60;;
81627;SDS011;71036;51.102;6.514;2023-11-22T10:56:21;9.40;;;5.53;;
81627;SDS011;71036;51.102;6.514;2023-11-22T10:58:51;11.60;;;6.07;;
81627;SDS011;71036;51.102;6.514;2023-11-22T11:01:17;10.07;;;5.80;;
81627;SDS011;71036;51.102;6.514;2023-11-22T11:03:45;8.33;;;4.70;;
81627;SDS011;71036;51.102;6.514;2023-11-22T11:06:13;15.07;;;4.80;;
81627;SDS011;71036;51.102;6.514;2023-11-22T11:08:40;3.60;;;2.60;;
81627;SDS011;71036;51.102;6.514;2023-11-22T11:11:06;4.90;;;2.90;;
81627;SDS011;71036;51.102;6.514;2023-11-22T11:13:31;9.40;;;5.17;;
81627;SDS011;71036;51.102;6.514;2023-11-22T11:15:57;7.50;;;4.50;;
81627;SDS011;71036;51.102;6.514;2023-11-22T11:18:23;8.30;;;4.07;;
81627;SDS011;71036;51.102;6.514;2023-11-22T11:20:52;11.27;;;5.50;;
81627;SDS011;71036;51.102;6.514;2023-11-22T11:23:21;7.60;;;4.70;;
81627;SDS011;71036;51.102;6.514;2023-11-22T11:25:53;15.33;;;5.30;;
81627;SDS011;71036;51.102;6.514;2023-11-22T11:28:19;7.37;;;4.60;;
81627;SDS011;71036;51.102;6.514;2023-11-22T11:30:45;9.00;;;4.10;;
81627;SDS011;71036;51.102;6.514;2023-11-22T11:33:18;4.60;;;2.27;;
81627;SDS011;71036;51.102;6.514;2023-11-22T11:35:44;4.73;;;2.50;;
81627;SDS011;71036;51.102;6.514;2023-11-22T11:38:12;2.70;;;1.83;;
81627;SDS011;71036;51.102;6.514;2023-11-22T11:40:38;5.10;;;2.17;;
81627;SDS011;71036;51.102;6.514;2023-11-22T11:43:04;6.77;;;2.20;;
81627;SDS011;71036;51.102;6.514;2023-11-22T11:45:30;5.77;;;3.00;;
81627;SDS011;71036;51.102;6.514;2023-11-22T11:47:56;11.93;;;2.73;;
81627;SDS011;71036;51.102;6.514;2023-11-22T11:50:21;7.07;;;3.87;;
81627;SDS011;71036;51.102;6.514;2023-11-22T11:52:47;6.40;;;3.50;;
81627;SDS011;71036;51.102;6.514;2023-11-22T11:55:12;6.00;;;3.80;;
81627;SDS011;71036;51.102;6.514;2023-11-22T11:57:37;4.60;;;2.90;;
81627;SDS011;71036;51.102;6.514;2023-11-22T12:00:02;5.50;;;2.90;;
81627;SDS011;71036;51.102;6.514;2023-11-22T12:02:30;8.10;;;3.63;;
81627;SDS011;71036;51.102;6.514;2023-11-22T12:04:55;7.60;;;3.33;;
81627;SDS011;71036;51.102;6.514;2023-11-22T12:07:20;9.75;;;3.17;;
81627;SDS011;71036;51.102;6.514;2023-11-22T12:09:45;9.53;;;3.90;;
81627;SDS011;71036;51.102;6.514;2023-11-22T12:12:12;9.27;;;4.33;;
81627;SDS011;71036;51.102;6.514;2023-11-22T12:14:37;6.37;;;3.30;;
81627;SDS011;71036;51.102;6.514;2023-11-22T12:17:03;4.90;;;3.40;;
81627;SDS011;71036;51.102;6.514;2023-11-22T12:19:28;6.60;;;3.47;;
81627;SDS011;71036;51.102;6.514;2023-11-22T12:21:56;5.90;;;3.53;;
81627;SDS011;71036;51.102;6.514;2023-11-22T12:24:21;7.63;;;4.13;;
81627;SDS011;71036;51.102;6.514;2023-11-22T12:26:46;5.17;;;3.20;;
81627;SDS011;71036;51.102;6.514;2023-11-22T12:29:14;4.93;;;2.83;;
81627;SDS011;71036;51.102;6.514;2023-11-22T12:31:46;5.43;;;2.87;;
81627;SDS011;71036;51.102;6.514;2023-11-22T12:34:14;29.10;;;3.20;;
81627;SDS011;71036;51.102;6.514;2023-11-22T12:36:41;4.70;;;2.67;;
81627;SDS011;71036;51.102;6.514;2023-11-22T12:39:06;8.00;;;4.53;;
81627;SDS011;71036;51.102;6.514;2023-11-22T12:41:32;14.10;;;5.80;;
81627;SDS011;71036;51.102;6.514;2023-11-22T12:44:04;12.53;;;7.27;;
81627;SDS011;71036;51.102;6.514;2023-11-22T12:46:44;10.67;;;6.70;;
81627;SDS011;71036;51.102;6.514;2023-11-22T12:49:09;17.30;;;7.73;;
81627;SDS011;71036;51.102;6.514;2023-11-22T12:51:35;13.40;;;6.77;;
81627;SDS011;71036;51.102;6.514;2023-11-22T12:54:01;16.13;;;7.20;;
81627;SDS011;71036;51.102;6.514;2023-11-22T12:56:26;12.57;;;5.47;;
81627;SDS011;71036;51.102;6.514;2023-11-22T12:58:53;15.13;;;6.57;;
81627;SDS011;71036;51.102;6.514;2023-11-22T13:01:18;13.30;;;5.43;;
81627;SDS011;71036;51.102;6.514;2023-11-22T13:03:45;17.83;;;5.80;;
81627;SDS011;71036;51.102;6.514;2023-11-22T13:06:10;17.85;;;6.65;;
81627;SDS011;71036;51.102;6.514;2023-11-22T13:08:35;12.77;;;6.83;;
81627;SDS011;71036;51.102;6.514;2023-11-22T13:11:00;17.20;;;7.27;;
81627;SDS011;71036;51.102;6.514;2023-11-22T13:13:26;14.03;;;6.47;;
81627;SDS011;71036;51.102;6.514;2023-11-22T13:15:52;14.20;;;4.87;;
81627;SDS011;71036;51.102;6.514;2023-11-22T13:18:18;13.53;;;5.53;;
81627;SDS011;71036;51.102;6.514;2023-11-22T13:20:43;11.60;;;4.77;;
81627;SDS011;71036;51.102;6.514;2023-11-22T13:23:09;8.40;;;4.50;;
81627;SDS011;71036;51.102;6.514;2023-11-22T13:25:34;13.27;;;5.20;;
81627;SDS011;71036;51.102;6.514;2023-11-22T13:27:59;14.00;;;5.17;;
81627;SDS011;71036;51.102;6.514;2023-11-22T13:30:24;10.30;;;5.23;;
81627;SDS011;71036;51.102;6.514;2023-11-22T13:32:50;15.47;;;5.33;;
81627;SDS011;71036;51.102;6.514;2023-11-22T13:35:16;12.10;;;5.70;;
81627;SDS011;71036;51.102;6.514;2023-11-22T13:37:42;10.50;;;4.70;;
81627;SDS011;71036;51.102;6.514;2023-11-22T13:40:11;8.43;;;5.03;;
81627;SDS011;71036;51.102;6.514;2023-11-22T13:42:43;11.93;;;5.40;;
81627;SDS011;71036;51.102;6.514;2023-11-22T13:45:09;26.80;;;7.67;;
81627;SDS011;71036;51.102;6.514;2023-11-22T13:47:34;13.97;;;5.30;;
81627;SDS011;71036;51.102;6.514;2023-11-22T13:49:59;18.27;;;5.77;;
81627;SDS011;71036;51.102;6.514;2023-11-22T13:52:25;12.48;;;5.47;;
81627;SDS011;71036;51.102;6.514;2023-11-22T13:54:50;10.85;;;4.75;;
81627;SDS011;71036;51.102;6.514;2023-11-22T13:57:16;11.77;;;4.27;;
81627;SDS011;71036;51.102;6.514;2023-11-22T13:59:41;10.23;;;4.40;;
81627;SDS011;71036;51.102;6.514;2023-11-22T14:02:07;13.02;;;4.68;;
81627;SDS011;71036;51.102;6.514;2023-11-22T14:04:32;8.50;;;4.00;;
81627;SDS011;71036;51.102;6.514;2023-11-22T14:06:59;8.07;;;4.20;;
81627;SDS011;71036;51.102;6.514;2023-11-22T14:09:25;11.37;;;4.50;;
81627;SDS011;71036;51.102;6.514;2023-11-22T14:11:50;8.40;;;4.03;;
81627;SDS011;71036;51.102;6.514;2023-11-22T14:14:15;9.80;;;4.22;;
81627;SDS011;71036;51.102;6.514;2023-11-22T14:16:40;12.00;;;4.77;;
81627;SDS011;71036;51.102;6.514;2023-11-22T14:19:09;10.97;;;4.73;;
81627;SDS011;71036;51.102;6.514;2023-11-22T14:21:34;9.27;;;4.22;;